HSKA

Kassala Airport

Kassala, Sudan
TAF HSKA 231100Z 2312/2418 18005G15KT 9999 SCT040 BKN140 TEMPO 2314/2320 6000 TSRA FEW045CB BKN140 TEMPO 2322/2403 8000 -SHRA BKN140
Issued Valid From Valid To
Jul-23 @ 11:00 UTC
(3 hours ago)
Jul-23 @ 12:00 UTC
(2 hours ago)
Jul-24 @ 18:00 UTC
(-1 days ago)
Jul-23 @ 12:00 to Jul-24 @ 18:00
TAF HSKA 231100Z 2312/2418 18005G15KT 9999 SCT040 BKN140
Wind Visibility Clouds
180° at 5 knots
 Gusting to 15 knots
10,000+ meters
  • Scattered at 4,000' AGL
  • Broken at 14,000' AGL
Temporary Jul-23 @ 14:00 to Jul-23 @ 20:00
TEMPO 2314/2320 6000 TSRA FEW045CB BKN140
Visibility Clouds Conditions
6,003 meters
  • Few at 4,500' AGL
  • Broken at 14,000' AGL
  • Thunderstorm
  • Rain
Temporary Jul-23 @ 22:00 to Jul-24 @ 03:00
TEMPO 2322/2403 8000 -SHRA BKN140
Visibility Clouds Conditions
7,998 meters
  • Broken at 14,000' AGL
  • Light Rain
TAF HSKA 231100Z 2312/2418 18005G15KT 9999 SCT040 BKN140 TEMPO 2314/2320 6000 TSRA FEW045CB BKN140 TEMPO 2322/2403 8000 -SHRA BKN140
Issued Jul-23 @ 11:00 UTC
(3 hours ago)
Valid From Jul-23 @ 12:00 UTC
(2 hours ago)
Valid To Jul-24 @ 18:00 UTC
(-1 days ago)
Jul-23 @ 12:00 - Jul-24 @ 18:00
Wind Visibility
180° at 5 knots
 Gusting to 15 knots
10,000+ meters
Clouds
  • Scattered at 4,000' AGL
  • Broken at 14,000' AGL
Temporary Jul-23 @ 14:00 - Jul-23 @ 20:00
Clouds
  • Few at 4,500' AGL
  • Broken at 14,000' AGL
Conditions
  • Thunderstorm
  • Rain
Temporary Jul-23 @ 22:00 - Jul-24 @ 03:00
Clouds
  • Broken at 14,000' AGL
Conditions
  • Light Rain